Time;durP1;ratioP1;P1;durP2;ratioP2;P2;SDS_P1;SDS_P2;PMS_P1;PMS_P2;Temp;Humidity;BMP_temperature;BMP_pressure;BME280_temperature;BME280_humidity;BME280_pressure;Samples;Min_cycle;Max_cycle;Signal;HPM_P1;HPM_P2
2021/09/23 00:00:11;;;;;;;6.38;4.00;;;;;;;;;;5032412;28;20444;-51
2021/09/23 00:05:10;;;;;;;8.73;4.07;;;;;;;;;;5031791;28;20447;-51
2021/09/23 00:07:36;;;;;;;9.20;3.75;;;;;;;;;;5033010;28;20463;-52
2021/09/23 00:10:03;;;;;;;5.28;3.33;;;;;;;;;;5032031;28;20458;-51
2021/09/23 00:12:28;;;;;;;8.63;3.13;;;;;;;;;;5032739;28;20136;-51
2021/09/23 00:14:54;;;;;;;15.82;3.55;;;;;;;;;;5031467;28;20030;-51
2021/09/23 00:17:21;;;;;;;5.68;3.55;;;;;;;;;;5032451;28;20030;-51
2021/09/23 00:19:47;;;;;;;8.60;3.80;;;;;;;;;;5032214;28;20489;-51
2021/09/23 00:22:12;;;;;;;7.72;3.90;;;;;;;;;;5033123;28;20042;-51
2021/09/23 00:24:38;;;;;;;10.70;3.53;;;;;;;;;;5031579;28;20027;-51
2021/09/23 00:27:04;;;;;;;5.95;3.70;;;;;;;;;;5032175;28;20025;-52
2021/09/23 00:29:31;;;;;;;5.38;3.15;;;;;;;;;;5032531;28;20033;-51
2021/09/23 00:31:56;;;;;;;6.75;3.65;;;;;;;;;;5032831;28;20108;-51
2021/09/23 00:34:22;;;;;;;8.15;4.18;;;;;;;;;;5031495;28;20069;-51
2021/09/23 00:36:48;;;;;;;6.07;3.33;;;;;;;;;;5032202;28;20026;-51
2021/09/23 00:39:14;;;;;;;4.55;2.65;;;;;;;;;;5032163;28;20026;-51
2021/09/23 00:41:41;;;;;;;4.57;2.90;;;;;;;;;;5032193;28;20447;-51
2021/09/23 00:44:14;;;;;;;7.25;3.33;;;;;;;;;;5031278;28;20025;-51
2021/09/23 00:46:40;;;;;;;4.82;2.53;;;;;;;;;;5032352;28;20025;-52
2021/09/23 00:49:06;;;;;;;5.03;3.08;;;;;;;;;;5032701;28;20032;-51
2021/09/23 00:51:32;;;;;;;7.25;3.40;;;;;;;;;;5032631;28;20025;-51
2021/09/23 00:53:58;;;;;;;11.32;4.13;;;;;;;;;;5031161;28;20451;-51
2021/09/23 00:56:24;;;;;;;5.95;3.42;;;;;;;;;;5032302;28;20471;-51
2021/09/23 00:58:50;;;;;;;6.55;3.45;;;;;;;;;;5032015;28;20025;-51
2021/09/23 01:01:16;;;;;;;6.80;2.80;;;;;;;;;;5031831;28;20045;-51
2021/09/23 01:03:42;;;;;;;5.25;3.22;;;;;;;;;;5031508;28;20113;-51
2021/09/23 01:06:08;;;;;;;4.35;3.08;;;;;;;;;;5032198;28;20030;-51
2021/09/23 01:08:37;;;;;;;8.27;3.45;;;;;;;;;;5033398;28;20018;-51
2021/09/23 01:11:03;;;;;;;5.05;3.47;;;;;;;;;;5035384;28;20021;-51
2021/09/23 01:13:29;;;;;;;8.38;3.50;;;;;;;;;;5034997;28;20045;-51
2021/09/23 01:15:55;;;;;;;5.75;3.47;;;;;;;;;;5035524;28;20121;-51
2021/09/23 01:18:22;;;;;;;6.18;3.85;;;;;;;;;;5035553;28;20053;-51
2021/09/23 01:20:48;;;;;;;6.00;3.92;;;;;;;;;;5034952;28;20446;-51
2021/09/23 01:23:14;;;;;;;16.02;3.80;;;;;;;;;;5035227;28;20064;-51
2021/09/23 01:25:40;;;;;;;9.63;3.80;;;;;;;;;;5034624;28;20108;-51
2021/09/23 01:28:06;;;;;;;8.27;3.88;;;;;;;;;;5035406;28;20064;-51
2021/09/23 01:30:32;;;;;;;8.13;4.22;;;;;;;;;;5034544;28;20079;-51
2021/09/23 01:32:58;;;;;;;9.23;3.88;;;;;;;;;;5035508;28;20120;-51
2021/09/23 01:35:24;;;;;;;9.02;3.90;;;;;;;;;;5034416;28;20060;-51
2021/09/23 01:37:50;;;;;;;8.60;4.03;;;;;;;;;;5034324;28;20325;-51
2021/09/23 01:40:16;;;;;;;6.20;3.50;;;;;;;;;;5034960;28;20209;-51
2021/09/23 01:42:43;;;;;;;7.80;4.00;;;;;;;;;;5035006;28;20025;-51
2021/09/23 01:45:10;;;;;;;7.15;4.40;;;;;;;;;;5034237;28;20099;-51
2021/09/23 01:47:36;;;;;;;9.40;3.40;;;;;;;;;;5034822;28;20041;-51
2021/09/23 01:50:02;;;;;;;9.75;4.53;;;;;;;;;;5034770;28;20117;-51
2021/09/23 01:52:28;;;;;;;8.85;3.88;;;;;;;;;;5033158;28;20388;-51
2021/09/23 01:54:54;;;;;;;7.07;4.22;;;;;;;;;;5033651;28;20026;-51
2021/09/23 01:57:20;;;;;;;7.38;3.85;;;;;;;;;;5034454;28;20036;-51
2021/09/23 01:59:46;;;;;;;8.43;4.28;;;;;;;;;;5034895;28;20493;-51
2021/09/23 02:02:12;;;;;;;7.63;3.78;;;;;;;;;;5033305;28;20116;-50
2021/09/23 02:04:38;;;;;;;8.40;4.32;;;;;;;;;;5033904;28;20060;-51
2021/09/23 02:07:05;;;;;;;7.65;3.60;;;;;;;;;;5034898;28;20061;-51
2021/09/23 02:09:32;;;;;;;8.88;4.22;;;;;;;;;;5034246;28;20502;-51
2021/09/23 02:12:00;;;;;;;8.13;4.68;;;;;;;;;;5034625;28;20021;-51
2021/09/23 02:14:26;;;;;;;9.98;4.10;;;;;;;;;;5034139;28;20026;-51
2021/09/23 02:16:52;;;;;;;7.93;4.43;;;;;;;;;;5034250;28;20075;-51
2021/09/23 02:19:18;;;;;;;13.88;4.88;;;;;;;;;;5033875;28;20474;-51
2021/09/23 02:21:44;;;;;;;8.85;4.50;;;;;;;;;;5032742;28;20029;-51
2021/09/23 02:24:10;;;;;;;8.90;4.55;;;;;;;;;;5033886;28;20038;-51
2021/09/23 02:26:36;;;;;;;6.68;4.10;;;;;;;;;;5034228;28;20144;-51
2021/09/23 02:29:02;;;;;;;12.85;4.57;;;;;;;;;;5034162;28;20021;-51
2021/09/23 02:31:28;;;;;;;7.68;4.90;;;;;;;;;;5032335;28;20025;-51
2021/09/23 02:33:54;;;;;;;7.65;4.18;;;;;;;;;;5033597;28;20032;-51
2021/09/23 02:36:20;;;;;;;8.65;4.57;;;;;;;;;;5033936;28;20458;-51
2021/09/23 02:38:46;;;;;;;8.70;4.63;;;;;;;;;;5033707;28;20036;-51
2021/09/23 02:41:12;;;;;;;9.20;4.55;;;;;;;;;;5034147;28;20033;-51
2021/09/23 02:43:38;;;;;;;9.60;3.80;;;;;;;;;;5032925;28;20033;-51
2021/09/23 02:46:04;;;;;;;5.00;3.40;;;;;;;;;;5034089;28;20026;-51
2021/09/23 02:48:30;;;;;;;8.38;3.55;;;;;;;;;;5034231;28;20030;-51
2021/09/23 02:50:56;;;;;;;10.32;4.00;;;;;;;;;;5033981;28;20455;-51
2021/09/23 02:53:23;;;;;;;6.32;3.95;;;;;;;;;;5033945;28;20021;-51
2021/09/23 02:55:49;;;;;;;5.35;3.38;;;;;;;;;;5026430;28;20506;-51
2021/09/23 02:58:15;;;;;;;11.35;4.38;;;;;;;;;;5050026;28;20063;-51
2021/09/23 03:00:41;;;;;;;8.98;3.67;;;;;;;;;;5053778;28;20033;-51
2021/09/23 03:03:07;;;;;;;8.27;3.92;;;;;;;;;;5053502;28;20033;-51
2021/09/23 03:05:33;;;;;;;8.02;4.05;;;;;;;;;;5053202;28;20032;-51
2021/09/23 03:07:59;;;;;;;12.75;3.92;;;;;;;;;;5051946;28;20162;-51
2021/09/23 03:10:25;;;;;;;10.50;4.68;;;;;;;;;;5052247;28;20494;-51
2021/09/23 03:12:51;;;;;;;10.10;4.10;;;;;;;;;;5033326;28;20113;-51
2021/09/23 03:15:17;;;;;;;8.57;5.38;;;;;;;;;;5032764;28;20060;-51
2021/09/23 03:17:43;;;;;;;11.90;4.75;;;;;;;;;;5033417;28;20024;-51
2021/09/23 03:20:12;;;;;;;8.80;4.65;;;;;;;;;;5033184;28;20026;-51
2021/09/23 03:22:38;;;;;;;9.15;4.65;;;;;;;;;;5033078;28;20044;-51
2021/09/23 03:25:04;;;;;;;11.88;4.93;;;;;;;;;;5028156;28;20029;-51
2021/09/23 03:27:30;;;;;;;8.88;4.25;;;;;;;;;;5039136;28;20025;-51
2021/09/23 03:29:56;;;;;;;8.38;4.35;;;;;;;;;;5033054;28;20358;-51
2021/09/23 03:32:22;;;;;;;9.02;4.50;;;;;;;;;;5044192;28;20021;-51
2021/09/23 03:34:48;;;;;;;8.10;4.68;;;;;;;;;;5051672;28;20040;-51
2021/09/23 03:37:14;;;;;;;7.72;4.25;;;;;;;;;;5052950;28;20028;-51
2021/09/23 03:39:40;;;;;;;8.95;5.10;;;;;;;;;;5052972;28;20474;-51
2021/09/23 03:42:06;;;;;;;7.78;4.57;;;;;;;;;;5052868;28;20067;-51
2021/09/23 03:44:32;;;;;;;12.30;5.40;;;;;;;;;;5040285;28;20132;-51
2021/09/23 03:46:58;;;;;;;15.23;6.07;;;;;;;;;;5032850;28;20075;-50
2021/09/23 03:49:24;;;;;;;15.15;6.20;;;;;;;;;;5032279;28;20406;-51
2021/09/23 03:51:51;;;;;;;17.35;5.13;;;;;;;;;;5032535;28;20041;-51
2021/09/23 03:54:17;;;;;;;13.57;5.28;;;;;;;;;;5032371;28;20164;-51
2021/09/23 03:56:43;;;;;;;9.40;5.40;;;;;;;;;;5048589;28;20064;-51
2021/09/23 03:59:09;;;;;;;7.07;4.50;;;;;;;;;;5052887;28;20017;-51
2021/09/23 04:01:35;;;;;;;12.88;5.15;;;;;;;;;;5053087;28;20037;-51
2021/09/23 04:04:01;;;;;;;10.07;4.57;;;;;;;;;;5051497;28;20021;-51
2021/09/23 04:06:27;;;;;;;7.43;4.93;;;;;;;;;;5052606;28;20032;-51
2021/09/23 04:08:53;;;;;;;7.97;4.90;;;;;;;;;;5052688;28;20025;-51
2021/09/23 04:11:19;;;;;;;11.18;5.40;;;;;;;;;;5044123;28;20036;-51
2021/09/23 04:13:45;;;;;;;11.27;5.72;;;;;;;;;;5031504;28;20433;-51
2021/09/23 04:16:11;;;;;;;10.40;5.72;;;;;;;;;;5033079;28;20288;-51
2021/09/23 04:18:37;;;;;;;11.20;5.93;;;;;;;;;;5032572;28;20025;-51
2021/09/23 04:21:03;;;;;;;9.63;4.80;;;;;;;;;;5032907;28;20072;-51
2021/09/23 04:23:29;;;;;;;8.57;4.82;;;;;;;;;;5031664;28;20062;-51
2021/09/23 04:25:55;;;;;;;10.80;5.43;;;;;;;;;;5032502;28;20030;-51
2021/09/23 04:28:21;;;;;;;12.98;6.10;;;;;;;;;;5032505;28;20068;-51
2021/09/23 04:30:47;;;;;;;11.55;5.70;;;;;;;;;;5032692;28;20056;-51
2021/09/23 04:33:14;;;;;;;16.25;5.55;;;;;;;;;;5031868;28;20113;-51
2021/09/23 04:35:40;;;;;;;17.27;6.10;;;;;;;;;;5031918;28;20022;-51
2021/09/23 04:38:06;;;;;;;14.32;5.97;;;;;;;;;;5032295;28;20379;-51
2021/09/23 04:40:32;;;;;;;10.80;6.18;;;;;;;;;;5032666;28;20021;-51
2021/09/23 04:42:58;;;;;;;20.77;5.78;;;;;;;;;;5033916;28;20032;-51
2021/09/23 04:45:24;;;;;;;9.68;5.43;;;;;;;;;;5035612;28;20026;-51
2021/09/23 04:47:50;;;;;;;12.63;5.50;;;;;;;;;;5036130;28;20068;-51
2021/09/23 04:50:16;;;;;;;10.90;5.10;;;;;;;;;;5035871;28;20021;-51
2021/09/23 04:52:42;;;;;;;8.65;4.72;;;;;;;;;;5036029;28;20033;-51
2021/09/23 04:55:08;;;;;;;12.25;5.70;;;;;;;;;;5035549;28;20037;-51
2021/09/23 04:57:34;;;;;;;9.95;5.10;;;;;;;;;;5034316;28;20028;-51
2021/09/23 05:00:02;;;;;;;13.77;5.50;;;;;;;;;;5049413;28;20112;-51
2021/09/23 05:02:32;;;;;;;10.05;5.60;;;;;;;;;;5056102;28;20086;-51
2021/09/23 05:04:59;;;;;;;12.02;5.68;;;;;;;;;;5054798;28;20108;-51
2021/09/23 05:07:25;;;;;;;14.00;6.35;;;;;;;;;;5043387;28;20060;-51
2021/09/23 05:09:51;;;;;;;18.88;6.47;;;;;;;;;;5035693;28;20021;-51
2021/09/23 05:12:17;;;;;;;13.75;5.65;;;;;;;;;;5035708;28;20099;-51
2021/09/23 05:14:43;;;;;;;14.30;6.95;;;;;;;;;;5034901;28;20045;-51
2021/09/23 05:17:09;;;;;;;13.00;5.95;;;;;;;;;;5035670;28;20014;-51
2021/09/23 05:19:35;;;;;;;12.32;6.82;;;;;;;;;;5035272;28;20029;-51
2021/09/23 05:22:01;;;;;;;11.75;6.43;;;;;;;;;;5035410;28;20048;-51
2021/09/23 05:24:27;;;;;;;14.05;5.53;;;;;;;;;;5034825;28;20036;-51
2021/09/23 05:26:53;;;;;;;10.50;5.45;;;;;;;;;;5035443;28;20062;-51
2021/09/23 05:29:19;;;;;;;12.05;6.57;;;;;;;;;;5035154;28;20124;-51
2021/09/23 05:31:45;;;;;;;9.07;5.90;;;;;;;;;;5035356;28;20037;-51
2021/09/23 05:34:11;;;;;;;13.35;6.30;;;;;;;;;;5034413;28;20017;-51
2021/09/23 05:36:37;;;;;;;13.13;6.25;;;;;;;;;;5035133;28;20475;-51
2021/09/23 05:39:04;;;;;;;11.32;5.55;;;;;;;;;;5035191;28;20363;-51
2021/09/23 05:41:30;;;;;;;17.42;6.07;;;;;;;;;;5034978;28;20356;-51
2021/09/23 05:43:56;;;;;;;11.57;5.90;;;;;;;;;;5034321;28;20021;-51
2021/09/23 05:46:22;;;;;;;12.73;5.50;;;;;;;;;;5035380;28;20033;-51
2021/09/23 05:48:48;;;;;;;13.45;6.45;;;;;;;;;;5035007;28;20351;-51
2021/09/23 05:51:14;;;;;;;12.30;6.15;;;;;;;;;;5035155;28;20036;-51
2021/09/23 05:53:40;;;;;;;12.23;6.15;;;;;;;;;;5033232;28;20030;-49
2021/09/23 05:56:06;;;;;;;11.68;5.75;;;;;;;;;;5034926;28;20035;-51
2021/09/23 05:58:32;;;;;;;11.90;5.80;;;;;;;;;;5034528;28;20665;-51
2021/09/23 06:00:58;;;;;;;10.80;6.60;;;;;;;;;;5034748;28;20030;-51
2021/09/23 06:03:24;;;;;;;11.38;5.60;;;;;;;;;;5034445;28;20026;-51
2021/09/23 06:05:50;;;;;;;10.65;5.28;;;;;;;;;;5034556;28;20354;-51
2021/09/23 06:08:16;;;;;;;12.45;6.65;;;;;;;;;;5034404;28;20028;-51
2021/09/23 06:10:42;;;;;;;12.23;6.05;;;;;;;;;;5034638;28;20435;-50
2021/09/23 06:13:08;;;;;;;14.15;6.25;;;;;;;;;;5033976;28;20028;-51
2021/09/23 06:15:34;;;;;;;18.98;6.80;;;;;;;;;;5051328;28;20028;-51
2021/09/23 06:18:00;;;;;;;15.80;6.82;;;;;;;;;;5053780;28;20021;-51
2021/09/23 06:20:26;;;;;;;12.68;6.03;;;;;;;;;;5053714;28;20053;-51
2021/09/23 06:22:54;;;;;;;12.15;6.40;;;;;;;;;;5049119;28;20441;-51
2021/09/23 06:25:21;;;;;;;13.65;6.57;;;;;;;;;;5053607;28;20060;-51
2021/09/23 06:27:47;;;;;;;11.32;6.40;;;;;;;;;;5041122;28;20044;-52
2021/09/23 06:30:13;;;;;;;12.30;6.90;;;;;;;;;;5034103;28;20033;-51
2021/09/23 06:32:39;;;;;;;13.27;6.00;;;;;;;;;;5037358;28;20029;-51
2021/09/23 06:35:05;;;;;;;13.23;5.43;;;;;;;;;;5033036;28;20123;-51
2021/09/23 06:37:32;;;;;;;15.90;7.38;;;;;;;;;;5034228;28;20034;-52
2021/09/23 06:39:58;;;;;;;25.90;7.10;;;;;;;;;;5033977;28;20017;-52
2021/09/23 06:42:24;;;;;;;15.00;6.53;;;;;;;;;;5035570;28;20356;-51
2021/09/23 06:44:50;;;;;;;15.57;7.85;;;;;;;;;;5052279;28;20021;-52
2021/09/23 06:47:16;;;;;;;15.10;5.90;;;;;;;;;;5053211;28;20421;-52
2021/09/23 06:49:42;;;;;;;18.67;7.07;;;;;;;;;;5063782;28;20028;-52
2021/09/23 06:52:08;;;;;;;15.98;7.70;;;;;;;;;;5073878;28;20033;-52
2021/09/23 06:54:34;;;;;;;19.35;8.23;;;;;;;;;;5072643;28;20047;-52
2021/09/23 06:57:00;;;;;;;23.45;7.97;;;;;;;;;;5073031;28;20032;-51
2021/09/23 06:59:26;;;;;;;14.18;7.35;;;;;;;;;;5072741;28;20488;-52
2021/09/23 07:01:52;;;;;;;25.75;9.80;;;;;;;;;;5073248;28;20036;-52
2021/09/23 07:04:18;;;;;;;25.17;10.20;;;;;;;;;;5072816;28;20047;-51
2021/09/23 07:06:44;;;;;;;22.92;10.45;;;;;;;;;;5072263;28;20067;-52
2021/09/23 07:09:10;;;;;;;26.48;11.70;;;;;;;;;;5073284;28;20024;-51
2021/09/23 07:11:36;;;;;;;21.30;10.80;;;;;;;;;;5051042;28;20036;-52
2021/09/23 07:14:03;;;;;;;12.82;7.28;;;;;;;;;;5031974;28;20443;-52
2021/09/23 07:16:29;;;;;;;16.65;8.98;;;;;;;;;;5032884;28;20071;-52
2021/09/23 07:18:55;;;;;;;24.08;10.73;;;;;;;;;;5033647;28;20282;-52
2021/09/23 07:21:21;;;;;;;22.10;11.25;;;;;;;;;;5032495;28;20124;-51
2021/09/23 07:23:47;;;;;;;26.38;14.48;;;;;;;;;;5048071;28;20609;-52
2021/09/23 07:26:13;;;;;;;24.98;12.50;;;;;;;;;;5052880;28;20056;-52
2021/09/23 07:28:39;;;;;;;40.55;17.42;;;;;;;;;;5052499;28;20040;-51
2021/09/23 07:31:05;;;;;;;30.00;12.52;;;;;;;;;;5052380;28;20021;-51
2021/09/23 07:33:31;;;;;;;28.63;14.95;;;;;;;;;;5052273;28;20163;-52
2021/09/23 07:35:57;;;;;;;43.80;21.25;;;;;;;;;;5052318;28;20112;-52
2021/09/23 07:38:23;;;;;;;37.03;20.38;;;;;;;;;;5053090;28;20035;-52
2021/09/23 07:40:49;;;;;;;39.58;18.38;;;;;;;;;;5052717;28;20049;-52
2021/09/23 07:43:15;;;;;;;46.85;19.38;;;;;;;;;;5052478;28;20192;-51
2021/09/23 07:45:41;;;;;;;36.47;18.20;;;;;;;;;;5051929;28;20036;-52
2021/09/23 07:48:07;;;;;;;20.48;12.05;;;;;;;;;;5044096;28;20363;-52
2021/09/23 07:50:33;;;;;;;21.33;11.40;;;;;;;;;;5049488;28;20029;-52
2021/09/23 07:53:00;;;;;;;48.13;21.17;;;;;;;;;;5052712;28;20025;-51
2021/09/23 07:55:25;;;;;;;30.13;15.35;;;;;;;;;;5051796;28;20052;-52
2021/09/23 07:57:51;;;;;;;18.10;10.68;;;;;;;;;;5052500;28;20059;-52
2021/09/23 08:00:18;;;;;;;25.95;12.00;;;;;;;;;;5052192;28;20454;-52
2021/09/23 08:02:44;;;;;;;26.42;13.35;;;;;;;;;;5052585;28;20521;-52
2021/09/23 08:05:10;;;;;;;37.20;13.82;;;;;;;;;;5051323;28;20477;-52
2021/09/23 08:07:37;;;;;;;21.67;10.77;;;;;;;;;;5052365;28;20036;-52
2021/09/23 08:10:03;;;;;;;18.85;9.35;;;;;;;;;;5052545;28;20029;-52
2021/09/23 08:12:29;;;;;;;22.88;10.18;;;;;;;;;;5051742;28;20076;-52
2021/09/23 08:14:55;;;;;;;18.65;10.57;;;;;;;;;;5051691;28;20025;-52
2021/09/23 08:17:21;;;;;;;20.17;10.27;;;;;;;;;;5053622;28;20466;-52
2021/09/23 08:19:47;;;;;;;28.60;9.70;;;;;;;;;;5066927;28;20032;-52
2021/09/23 08:22:13;;;;;;;26.00;12.43;;;;;;;;;;5076286;28;20155;-51
2021/09/23 08:24:39;;;;;;;21.40;10.38;;;;;;;;;;5060357;28;20431;-52
2021/09/23 08:27:05;;;;;;;20.25;9.35;;;;;;;;;;5035920;28;20087;-52
2021/09/23 08:29:32;;;;;;;25.33;10.48;;;;;;;;;;5044127;28;20061;-52
2021/09/23 08:31:58;;;;;;;23.88;11.63;;;;;;;;;;5056480;28;20442;-52
2021/09/23 08:34:24;;;;;;;30.35;13.48;;;;;;;;;;5044128;28;20021;-52
2021/09/23 08:36:50;;;;;;;23.98;11.43;;;;;;;;;;5036427;28;20041;-52
2021/09/23 08:39:16;;;;;;;20.42;9.55;;;;;;;;;;5036314;28;20018;-52
2021/09/23 08:41:42;;;;;;;23.08;9.95;;;;;;;;;;5034989;28;20083;-51
2021/09/23 08:44:08;;;;;;;45.28;17.17;;;;;;;;;;5035902;28;20048;-52
2021/09/23 08:46:35;;;;;;;47.22;18.63;;;;;;;;;;5045831;28;20029;-52
2021/09/23 08:49:02;;;;;;;37.05;14.23;;;;;;;;;;5046056;28;20101;-51
2021/09/23 08:51:28;;;;;;;28.48;12.40;;;;;;;;;;5044347;28;20022;-51
2021/09/23 08:53:54;;;;;;;38.50;14.15;;;;;;;;;;5044799;28;20561;-52
2021/09/23 08:56:21;;;;;;;30.02;12.40;;;;;;;;;;5042859;28;20394;-51
2021/09/23 08:58:48;;;;;;;25.45;10.10;;;;;;;;;;5046267;28;20515;-52
2021/09/23 09:01:18;;;;;;;33.90;9.88;;;;;;;;;;5044527;28;20472;-52
2021/09/23 09:03:45;;;;;;;15.68;8.27;;;;;;;;;;5054477;28;20036;-51
2021/09/23 09:06:12;;;;;;;19.50;7.53;;;;;;;;;;5055523;28;20029;-52
2021/09/23 09:08:38;;;;;;;19.75;9.20;;;;;;;;;;5049042;28;20447;-51
2021/09/23 09:11:08;;;;;;;20.80;8.90;;;;;;;;;;5046049;28;20060;-51
2021/09/23 09:13:35;;;;;;;24.33;10.50;;;;;;;;;;5044441;28;20044;-52
2021/09/23 09:16:06;;;;;;;21.02;10.10;;;;;;;;;;5045881;28;20111;-51
2021/09/23 09:18:32;;;;;;;;;;;;;;;;;;5045785;28;20021;-52
2021/09/23 09:21:03;;;;;;;47.67;20.73;;;;;;;;;;5043945;28;19923;-51
2021/09/23 09:23:45;;;;;;;22.50;10.15;;;;;;;;;;5043529;28;20108;-52
2021/09/23 09:26:11;;;;;;;16.05;7.95;;;;;;;;;;5044855;28;20025;-52
2021/09/23 09:28:47;;;;;;;21.95;8.93;;;;;;;;;;5037211;28;20079;-51
2021/09/23 09:31:14;;;;;;;27.27;11.65;;;;;;;;;;5035513;28;20072;-51
2021/09/23 09:33:42;;;;;;;20.08;11.45;;;;;;;;;;5034275;28;20431;-51
2021/09/23 09:36:27;;;;;;;19.17;7.78;;;;;;;;;;5035421;28;20041;-51
2021/09/23 09:38:55;;;;;;;23.58;10.55;;;;;;;;;;5034904;28;20025;-51
2021/09/23 09:41:26;;;;;;;13.77;7.53;;;;;;;;;;5034356;28;20041;-51
2021/09/23 09:43:53;;;;;;;18.27;8.48;;;;;;;;;;5033973;28;20030;-52
2021/09/23 09:46:34;;;;;;;18.33;7.60;;;;;;;;;;5034138;28;20037;-52
2021/09/23 09:49:00;;;;;;;15.57;7.13;;;;;;;;;;5034817;28;20048;-52
2021/09/23 09:51:40;;;;;;;21.65;9.25;;;;;;;;;;5035222;28;20033;-51
2021/09/23 09:54:07;;;;;;;18.17;7.47;;;;;;;;;;5033774;28;20032;-51
2021/09/23 09:56:33;;;;;;;16.73;6.82;;;;;;;;;;5034193;28;20362;-52
2021/09/23 09:59:10;;;;;;;16.63;6.82;;;;;;;;;;5034587;28;20116;-51
2021/09/23 10:01:36;;;;;;;11.68;6.43;;;;;;;;;;5034864;28;20044;-51
2021/09/23 10:04:02;;;;;;;16.13;6.80;;;;;;;;;;5040302;28;20075;-51
2021/09/23 10:06:29;;;;;;;19.48;7.32;;;;;;;;;;5053053;28;20033;-51
2021/09/23 10:08:56;;;;;;;13.65;6.47;;;;;;;;;;5054421;28;20423;-51
2021/09/23 10:11:22;;;;;;;13.90;5.40;;;;;;;;;;5045084;28;20074;-51
2021/09/23 10:13:48;;;;;;;14.43;6.43;;;;;;;;;;5033721;28;20448;-51
2021/09/23 10:16:15;;;;;;;8.88;4.85;;;;;;;;;;5046918;28;20408;-52
2021/09/23 10:18:42;;;;;;;9.90;4.15;;;;;;;;;;5053292;28;20025;-51
2021/09/23 10:21:08;;;;;;;8.13;4.32;;;;;;;;;;5046361;28;20049;-51
2021/09/23 10:23:39;;;;;;;8.65;4.68;;;;;;;;;;5039635;28;20026;-51
2021/09/23 10:26:06;;;;;;;7.95;4.53;;;;;;;;;;5033563;28;20030;-51
2021/09/23 10:28:32;;;;;;;7.57;4.32;;;;;;;;;;5033649;28;20025;-51
2021/09/23 10:30:58;;;;;;;7.85;4.00;;;;;;;;;;5033880;28;20108;-51
2021/09/23 10:33:24;;;;;;;8.82;4.32;;;;;;;;;;5034008;28;20021;-51
2021/09/23 10:35:51;;;;;;;11.68;4.00;;;;;;;;;;5033253;28;20041;-51
2021/09/23 10:38:17;;;;;;;7.00;4.03;;;;;;;;;;5034078;28;20077;-51
2021/09/23 10:40:44;;;;;;;6.78;4.35;;;;;;;;;;5033642;28;20026;-52
2021/09/23 10:43:15;;;;;;;9.65;4.75;;;;;;;;;;5033613;28;20025;-51
2021/09/23 10:45:41;;;;;;;12.02;4.63;;;;;;;;;;5033353;28;20029;-52
2021/09/23 10:48:08;;;;;;;8.75;4.07;;;;;;;;;;5033499;28;20060;-51
2021/09/23 10:50:34;;;;;;;10.75;4.80;;;;;;;;;;5033669;28;20018;-51
2021/09/23 10:53:01;;;;;;;8.40;4.68;;;;;;;;;;5033607;28;20367;-51
2021/09/23 10:55:28;;;;;;;9.77;4.60;;;;;;;;;;5032989;28;20455;-51
2021/09/23 10:57:55;;;;;;;8.45;4.45;;;;;;;;;;5032882;28;20079;-51
2021/09/23 11:00:28;;;;;;;11.45;4.80;;;;;;;;;;5033489;28;20037;-51
2021/09/23 11:02:55;;;;;;;7.72;4.20;;;;;;;;;;5033641;28;20033;-51
2021/09/23 11:05:22;;;;;;;8.05;4.10;;;;;;;;;;5032020;28;20075;-51
2021/09/23 11:07:48;;;;;;;7.50;4.20;;;;;;;;;;5033641;28;20040;-51
2021/09/23 11:10:14;;;;;;;10.63;5.28;;;;;;;;;;5033492;28;20029;-52
2021/09/23 11:12:43;;;;;;;8.80;4.60;;;;;;;;;;5032203;28;20017;-51
2021/09/23 11:15:10;;;;;;;7.22;4.47;;;;;;;;;;5032135;28;20029;-52
2021/09/23 11:17:37;;;;;;;6.97;4.03;;;;;;;;;;5033630;28;20052;-51
2021/09/23 11:20:13;;;;;;;8.23;4.22;;;;;;;;;;5032647;28;20030;-52
2021/09/23 11:22:39;;;;;;;9.98;4.10;;;;;;;;;;5039701;28;20033;-52
2021/09/23 11:25:07;;;;;;;8.73;5.53;;;;;;;;;;5052619;28;20465;-51
2021/09/23 11:27:34;;;;;;;8.00;4.68;;;;;;;;;;5051841;28;20033;-52
2021/09/23 11:30:00;;;;;;;7.97;4.90;;;;;;;;;;5053057;28;20064;-51
2021/09/23 11:32:26;;;;;;;8.25;4.97;;;;;;;;;;5053392;28;20021;-52
2021/09/23 11:35:02;;;;;;;11.52;4.82;;;;;;;;;;5051725;28;20025;-51
2021/09/23 11:37:30;;;;;;;9.48;5.22;;;;;;;;;;5052880;28;20021;-52
2021/09/23 11:39:57;;;;;;;8.88;4.47;;;;;;;;;;5052596;28;20049;-51
2021/09/23 11:42:24;;;;;;;9.40;4.03;;;;;;;;;;5052707;28;20037;-52
2021/09/23 11:44:51;;;;;;;7.85;4.72;;;;;;;;;;5052146;28;20025;-51
2021/09/23 11:47:17;;;;;;;12.25;5.63;;;;;;;;;;5052388;28;20021;-52
2021/09/23 11:49:48;;;;;;;8.68;4.35;;;;;;;;;;5052370;28;20032;-51
2021/09/23 11:52:14;;;;;;;6.75;4.25;;;;;;;;;;5052558;28;20029;-51
2021/09/23 11:54:40;;;;;;;12.57;5.03;;;;;;;;;;5051465;28;20120;-51
2021/09/23 11:57:06;;;;;;;7.82;4.28;;;;;;;;;;5052433;28;20043;-52
2021/09/23 11:59:32;;;;;;;10.93;5.10;;;;;;;;;;5052710;28;20021;-51
2021/09/23 12:02:04;;;;;;;13.23;4.70;;;;;;;;;;5052740;28;20115;-51
2021/09/23 12:04:34;;;;;;;9.45;5.13;;;;;;;;;;5051221;28;20029;-52
2021/09/23 12:07:09;;;;;;;9.13;5.47;;;;;;;;;;5052951;28;20163;-51
2021/09/23 12:09:37;;;;;;;9.55;4.50;;;;;;;;;;5052482;28;20264;-52
2021/09/23 12:12:03;;;;;;;8.77;5.10;;;;;;;;;;5037878;28;20030;-51
2021/09/23 12:14:29;;;;;;;8.27;4.57;;;;;;;;;;5031144;28;20025;-52
2021/09/23 12:17:02;;;;;;;10.82;5.25;;;;;;;;;;5032462;28;20614;-52
2021/09/23 12:19:28;;;;;;;17.48;5.35;;;;;;;;;;5032263;28;20033;-51
2021/09/23 12:21:55;;;;;;;8.88;4.30;;;;;;;;;;5032481;28;20615;-51
2021/09/23 12:24:31;;;;;;;11.05;5.20;;;;;;;;;;5052029;28;20036;-51
2021/09/23 12:26:58;;;;;;;8.45;5.07;;;;;;;;;;5051632;28;20485;-52
2021/09/23 12:29:24;;;;;;;7.90;4.28;;;;;;;;;;5052303;28;20108;-52
2021/09/23 12:32:01;;;;;;;12.32;5.00;;;;;;;;;;5052033;28;20063;-51
2021/09/23 12:34:27;;;;;;;9.68;4.30;;;;;;;;;;5051427;28;20148;-52
2021/09/23 12:37:01;;;;;;;6.80;3.70;;;;;;;;;;5052621;28;20079;-51
2021/09/23 12:39:36;;;;;;;9.55;3.95;;;;;;;;;;5052127;28;20029;-52
2021/09/23 12:42:04;;;;;;;6.32;3.55;;;;;;;;;;5051558;28;20446;-51
2021/09/23 12:44:31;;;;;;;7.40;3.70;;;;;;;;;;5051293;28;20033;-51
2021/09/23 12:47:17;;;;;;;8.27;4.32;;;;;;;;;;5052170;28;20085;-52
2021/09/23 12:49:49;;;;;;;7.32;3.70;;;;;;;;;;5051844;28;20025;-51
2021/09/23 12:52:20;;;;;;;5.05;3.20;;;;;;;;;;5052239;28;20044;-52
2021/09/23 12:54:47;;;;;;;8.65;3.65;;;;;;;;;;5051142;28;20029;-51
2021/09/23 12:57:17;;;;;;;6.05;3.42;;;;;;;;;;5051571;28;20063;-51
2021/09/23 12:59:43;;;;;;;7.40;4.28;;;;;;;;;;5052097;28;20527;-52
2021/09/23 13:02:14;;;;;;;6.72;4.35;;;;;;;;;;5051690;28;20375;-52
2021/09/23 13:04:40;;;;;;;7.38;3.90;;;;;;;;;;5053835;28;20026;-52
2021/09/23 13:07:19;;;;;;;7.97;4.20;;;;;;;;;;5055631;28;20025;-51
2021/09/23 13:10:05;;;;;;;6.28;3.38;;;;;;;;;;5055417;28;20123;-52
2021/09/23 13:12:34;;;;;;;8.00;4.18;;;;;;;;;;5036599;28;20049;-52
2021/09/23 13:15:01;;;;;;;9.07;4.63;;;;;;;;;;5034794;28;20351;-51
2021/09/23 13:17:27;;;;;;;7.00;3.58;;;;;;;;;;5035584;28;20402;-52
2021/09/23 13:19:53;;;;;;;7.97;4.00;;;;;;;;;;5035157;28;20079;-51
2021/09/23 13:22:19;;;;;;;9.05;3.85;;;;;;;;;;5038800;28;20061;-51
2021/09/23 13:24:45;;;;;;;5.88;3.55;;;;;;;;;;5054484;28;20032;-51
2021/09/23 13:27:11;;;;;;;7.28;3.53;;;;;;;;;;5054845;28;20017;-51
2021/09/23 13:29:37;;;;;;;6.95;3.47;;;;;;;;;;5055219;28;20352;-52
2021/09/23 13:32:03;;;;;;;10.05;3.42;;;;;;;;;;5055287;28;20021;-52
2021/09/23 13:34:29;;;;;;;7.95;3.22;;;;;;;;;;5053897;28;20036;-51
2021/09/23 13:36:55;;;;;;;9.23;3.80;;;;;;;;;;5055182;28;20025;-51
2021/09/23 13:39:21;;;;;;;5.25;3.45;;;;;;;;;;5055230;28;20358;-52
2021/09/23 13:41:47;;;;;;;9.00;4.13;;;;;;;;;;5054260;28;20033;-51
2021/09/23 13:44:13;;;;;;;5.55;3.65;;;;;;;;;;5054178;28;20056;-51
2021/09/23 13:46:39;;;;;;;5.55;3.20;;;;;;;;;;5054608;28;20033;-52
2021/09/23 13:49:05;;;;;;;6.03;2.97;;;;;;;;;;5054110;28;20107;-52
2021/09/23 13:51:31;;;;;;;6.93;3.88;;;;;;;;;;5054689;28;20473;-52
2021/09/23 13:53:57;;;;;;;6.55;3.45;;;;;;;;;;5054114;28;20078;-51
2021/09/23 13:56:23;;;;;;;8.52;3.22;;;;;;;;;;5052750;28;20505;-52
2021/09/23 13:58:49;;;;;;;5.60;2.88;;;;;;;;;;5054621;28;20024;-51
2021/09/23 14:01:15;;;;;;;4.50;2.97;;;;;;;;;;5054544;28;20056;-51
2021/09/23 14:03:41;;;;;;;4.53;2.35;;;;;;;;;;5053349;28;20103;-52
2021/09/23 14:06:07;;;;;;;4.40;2.80;;;;;;;;;;5054852;28;20726;-51
2021/09/23 14:08:33;;;;;;;7.68;3.08;;;;;;;;;;5054870;28;20029;-52
2021/09/23 14:11:01;;;;;;;4.75;2.83;;;;;;;;;;5048012;28;20025;-51
2021/09/23 14:13:29;;;;;;;6.47;2.60;;;;;;;;;;5034444;28;20033;-51
2021/09/23 14:15:57;;;;;;;4.75;3.00;;;;;;;;;;5033240;28;20512;-51
2021/09/23 14:18:23;;;;;;;6.38;3.10;;;;;;;;;;5034062;28;20056;-52
2021/09/23 14:20:49;;;;;;;6.38;2.35;;;;;;;;;;5034158;28;20025;-51
2021/09/23 14:23:15;;;;;;;3.55;2.65;;;;;;;;;;5045789;28;20079;-52
2021/09/23 14:25:41;;;;;;;5.32;2.92;;;;;;;;;;5053069;28;20052;-52
2021/09/23 14:28:09;;;;;;;4.13;2.50;;;;;;;;;;5053840;28;20047;-52
2021/09/23 14:30:35;;;;;;;4.57;2.35;;;;;;;;;;5054226;28;20032;-51
2021/09/23 14:33:01;;;;;;;4.88;2.95;;;;;;;;;;5053060;28;20025;-51
2021/09/23 14:35:27;;;;;;;5.18;2.47;;;;;;;;;;5053483;28;20032;-52